Time;durP1;ratioP1;P1;durP2;ratioP2;P2;SDS_P1;SDS_P2;PMS_P1;PMS_P2;Temp;Humidity;BMP_temperature;BMP_pressure;BME280_temperature;BME280_humidity;BME280_pressure;Samples;Min_cycle;Max_cycle;Signal;HPM_P1;HPM_P2
2022/12/31 00:01:17;;;;;;;11.88;1.30;;;;;;;4.52;75.94;99822.53;5062219;28;20139;-71
2022/12/31 00:03:45;;;;;;;12.00;1.38;;;;;;;4.55;75.86;99814.75;5062812;28;20041;-71
2022/12/31 00:06:14;;;;;;;13.55;1.67;;;;;;;4.59;75.92;99813.03;5061787;28;20055;-72
2022/12/31 00:08:41;;;;;;;11.25;1.45;;;;;;;4.60;75.76;99815.56;5061822;28;20053;-71
2022/12/31 00:11:10;;;;;;;17.75;1.90;;;;;;;4.62;75.97;99806.09;5061502;28;20043;-71
2022/12/31 00:13:37;;;;;;;9.00;1.65;;;;;;;4.64;76.34;99796.59;5062537;28;20127;-71
2022/12/31 00:16:09;;;;;;;11.27;1.77;;;;;;;4.65;76.02;99771.56;5066819;28;20049;-71
2022/12/31 00:18:36;;;;;;;14.27;1.63;;;;;;;4.69;76.09;99766.34;5060741;28;20768;-72
2022/12/31 00:21:08;;;;;;;16.77;1.88;;;;;;;4.71;76.33;99759.41;5062228;28;20414;-71
2022/12/31 00:23:36;;;;;;;9.18;0.90;;;;;;;4.73;76.42;99775.78;5064379;28;20475;-71
2022/12/31 00:26:04;;;;;;;13.00;1.35;;;;;;;4.77;76.23;99749.88;5062772;28;20041;-72
2022/12/31 00:28:33;;;;;;;6.32;1.83;;;;;;;4.79;76.21;99738.66;5060797;28;20047;-71
2022/12/31 00:31:06;;;;;;;14.27;1.80;;;;;;;4.79;76.03;99725.72;5064030;28;20040;-72
2022/12/31 00:33:33;;;;;;;8.48;0.88;;;;;;;4.84;76.44;99729.09;5058938;28;20053;-72
2022/12/31 00:36:09;;;;;;;11.32;1.83;;;;;;;4.87;76.41;99707.53;5064135;28;20048;-71
2022/12/31 00:38:36;;;;;;;14.77;1.45;;;;;;;4.86;76.45;99705.78;5064982;28;20040;-71
2022/12/31 00:41:04;;;;;;;10.02;2.17;;;;;;;4.90;76.34;99694.53;5064258;28;20363;-71
2022/12/31 00:43:32;;;;;;;8.60;2.30;;;;;;;4.91;76.42;99701.41;5064818;28;20487;-71
2022/12/31 00:45:59;;;;;;;10.75;1.73;;;;;;;4.93;76.54;99689.31;5060245;28;20667;-71
2022/12/31 00:48:26;;;;;;;15.43;2.10;;;;;;;4.93;76.27;99699.66;5064680;28;20049;-71
2022/12/31 00:50:53;;;;;;;10.52;1.63;;;;;;;4.97;76.29;99680.63;5066154;28;20044;-72
2022/12/31 00:53:20;;;;;;;5.93;1.15;;;;;;;4.98;76.26;99677.19;5061740;28;20066;-72
2022/12/31 00:55:47;;;;;;;19.63;1.77;;;;;;;5.01;76.24;99678.84;5062305;28;20041;-72
2022/12/31 00:58:14;;;;;;;10.38;1.88;;;;;;;5.00;76.43;99674.56;5063905;28;20051;-72
2022/12/31 01:00:43;;;;;;;18.23;2.08;;;;;;;5.02;76.15;99678.00;5064104;28;20057;-71
2022/12/31 01:03:10;;;;;;;7.03;0.80;;;;;;;4.99;76.18;99673.72;5061944;28;20495;-72
2022/12/31 01:05:38;;;;;;;17.90;2.85;;;;;;;5.06;75.54;99674.47;5061535;28;20177;-72
2022/12/31 01:08:05;;;;;;;10.75;1.35;;;;;;;5.06;75.92;99677.06;5062407;28;20529;-72
2022/12/31 01:13:13;;;;;;;13.82;1.33;;;;;;;5.10;75.81;99668.38;5033675;28;20048;-71
2022/12/31 01:15:42;;;;;;;9.93;3.00;;;;;;;5.11;75.97;99665.75;5063054;28;20144;-71
2022/12/31 01:18:09;;;;;;;6.65;1.13;;;;;;;5.13;75.93;99664.03;5063404;28;20124;-72
2022/12/31 01:20:37;;;;;;;8.13;1.95;;;;;;;5.14;75.93;99652.78;5062245;28;20053;-71
2022/12/31 01:23:04;;;;;;;17.25;3.60;;;;;;;5.15;75.89;99653.63;5062428;28;20132;-71
2022/12/31 01:25:34;;;;;;;17.10;1.85;;;;;;;5.15;75.82;99641.56;5062646;28;20056;-73
2022/12/31 01:28:01;;;;;;;11.68;3.10;;;;;;;5.17;75.66;99623.41;5063583;28;20454;-71
2022/12/31 01:30:28;;;;;;;8.60;1.40;;;;;;;5.17;75.66;99616.47;5064390;28;20502;-72
2022/12/31 01:32:56;;;;;;;2.53;0.95;;;;;;;5.18;75.71;99592.31;5062633;28;20076;-71
2022/12/31 01:35:23;;;;;;;12.10;1.88;;;;;;;5.20;75.67;99607.81;5063244;28;20050;-72
2022/12/31 01:37:50;;;;;;;11.88;1.92;;;;;;;5.22;75.55;99597.47;5061234;28;20526;-71
2022/12/31 01:40:17;;;;;;;7.43;1.45;;;;;;;5.22;75.50;99593.13;5061947;28;20055;-72
2022/12/31 01:42:44;;;;;;;9.07;1.55;;;;;;;5.24;75.78;99591.38;5064189;28;20051;-72
2022/12/31 01:45:13;;;;;;;12.38;1.50;;;;;;;5.25;75.50;99571.50;5061969;28;20490;-71
2022/12/31 01:47:44;;;;;;;10.27;1.77;;;;;;;5.25;75.42;99561.16;5063953;28;20131;-71
2022/12/31 01:50:18;;;;;;;17.60;1.92;;;;;;;5.25;75.44;99553.38;5064781;28;20417;-72
2022/12/31 01:52:48;;;;;;;7.88;1.92;;;;;;;5.27;75.37;99526.59;5058816;28;20045;-72
2022/12/31 01:55:19;;;;;;;6.97;1.33;;;;;;;5.29;75.27;99542.09;5064324;28;20037;-71
2022/12/31 01:57:48;;;;;;;5.68;1.15;;;;;;;5.30;75.25;99538.66;5063087;28;20053;-71
2022/12/31 02:00:16;;;;;;;7.85;2.47;;;;;;;5.30;75.27;99518.78;5060541;28;20055;-71
2022/12/31 02:02:43;;;;;;;14.32;1.50;;;;;;;5.31;75.28;99514.44;5059643;28;20407;-72
2022/12/31 02:05:18;;;;;;;9.40;1.80;;;;;;;5.32;75.29;99513.56;5061509;28;20073;-72
2022/12/31 02:07:47;;;;;;;;;;;;;;;5.34;75.08;99504.03;5057817;28;20444;-72
2022/12/31 02:10:14;;;;;;;11.48;2.28;;;;;;;5.33;75.22;99490.25;5060039;28;20284;-71
2022/12/31 02:12:41;;;;;;;9.68;2.38;;;;;;;5.35;75.04;99487.59;5062015;28;20051;-72
2022/12/31 02:15:09;;;;;;;7.93;1.13;;;;;;;5.36;75.00;99481.56;5064062;28;20045;-72
2022/12/31 02:17:44;;;;;;;10.23;1.27;;;;;;;5.35;74.95;99472.94;5058997;28;20501;-71
2022/12/31 02:20:24;;;;;;;;;;;;;;;5.36;75.07;99461.69;5064885;28;20048;-72
2022/12/31 02:23:26;;;;;;;7.00;1.15;;;;;;;5.37;74.98;99416.78;5061313;28;19924;-71
2022/12/31 02:26:12;;;;;;;8.98;1.42;;;;;;;5.33;74.76;99419.47;5017328;28;20048;-72
2022/12/31 02:29:01;;;;;;;12.45;1.38;;;;;;;5.40;74.84;99426.22;5060364;28;20041;-72
2022/12/31 02:31:34;;;;;;;3.33;0.65;;;;;;;5.39;74.78;99422.78;5058061;28;20135;-71
2022/12/31 02:34:06;;;;;;;10.50;1.02;;;;;;;5.42;74.76;99406.34;5060259;28;20053;-71
2022/12/31 02:36:37;;;;;;;11.20;1.30;;;;;;;5.44;74.57;99412.34;5057946;28;20092;-72
2022/12/31 02:39:06;;;;;;;0.30;0.20;;;;;;;5.46;74.74;99396.78;5061830;28;20059;-71
2022/12/31 02:41:49;;;;;;;9.88;1.08;;;;;;;5.46;74.63;99374.31;5061723;28;20056;-72
2022/12/31 02:44:24;;;;;;;10.23;2.33;;;;;;;5.44;74.89;99363.16;5063457;28;20052;-71
2022/12/31 02:47:06;;;;;;;13.02;1.25;;;;;;;5.47;74.92;99357.06;5064995;28;20048;-72
2022/12/31 02:49:42;;;;;;;11.80;1.73;;;;;;;5.48;75.12;99343.22;5062629;28;20399;-71
2022/12/31 02:52:19;;;;;;;12.73;2.65;;;;;;;5.50;75.14;99349.22;5062723;28;20051;-71
2022/12/31 02:54:56;;;;;;;12.15;1.38;;;;;;;5.48;75.26;99336.28;5062113;28;20047;-72
2022/12/31 02:57:34;;;;;;;4.82;1.05;;;;;;;5.40;75.37;99333.00;5058248;28;20051;-71
2022/12/31 03:02:52;;;;;;;8.38;1.90;;;;;;;5.48;75.76;99332.84;5061813;28;20047;-72
2022/12/31 03:05:24;;;;;;;13.85;1.75;;;;;;;5.47;75.84;99319.06;5056931;28;20044;-72
2022/12/31 03:07:51;;;;;;;15.40;1.75;;;;;;;5.48;75.79;99333.72;5059857;28;20128;-71
2022/12/31 03:10:18;;;;;;;6.10;0.75;;;;;;;5.48;75.91;99319.91;5061128;28;20049;-72
2022/12/31 03:12:47;;;;;;;9.68;1.90;;;;;;;5.43;75.85;99307.03;5063509;28;20084;-73
2022/12/31 03:15:22;;;;;;;7.63;1.25;;;;;;;5.47;76.08;99306.13;5060204;28;20520;-74
2022/12/31 03:17:54;;;;;;;14.90;1.50;;;;;;;5.48;76.13;99309.56;5058109;28;20128;-74
2022/12/31 03:23:11;;;;;;;6.80;0.90;;;;;;;5.47;75.81;99289.72;5059323;28;20495;-74
2022/12/31 03:25:37;;;;;;;10.40;1.08;;;;;;;5.40;76.12;99271.72;5060096;28;20102;-74
2022/12/31 03:28:06;;;;;;;5.18;0.88;;;;;;;5.46;76.05;99270.72;5061459;28;20092;-74
2022/12/31 03:30:33;;;;;;;4.25;0.60;;;;;;;5.46;76.14;99264.69;5056372;28;20055;-74
2022/12/31 03:33:03;;;;;;;4.88;0.68;;;;;;;5.47;76.32;99262.09;5054110;28;20570;-74
2022/12/31 03:35:31;;;;;;;9.10;1.17;;;;;;;5.48;76.07;99250.84;5062966;28;20406;-74
2022/12/31 03:37:58;;;;;;;6.15;1.58;;;;;;;5.31;76.59;99224.47;5061891;28;20049;-74
2022/12/31 03:40:29;;;;;;;2.85;0.88;;;;;;;5.48;76.46;99247.41;5059782;28;20053;-74
2022/12/31 03:42:56;;;;;;;7.75;0.70;;;;;;;5.49;76.72;99255.13;5060312;28;20059;-74
2022/12/31 03:45:24;;;;;;;4.93;0.82;;;;;;;5.49;76.67;99233.56;5059601;28;20045;-74
2022/12/31 03:47:51;;;;;;;11.18;1.05;;;;;;;5.46;76.57;99224.09;5055728;28;20063;-74
2022/12/31 03:50:20;;;;;;;4.80;1.83;;;;;;;5.48;76.76;99222.34;5064800;28;20055;-69
2022/12/31 03:52:47;;;;;;;3.97;1.00;;;;;;;5.48;76.89;99221.50;5060716;28;20056;-69
2022/12/31 03:55:14;;;;;;;8.30;1.70;;;;;;;5.51;76.77;99208.47;5062088;28;20128;-69
2022/12/31 03:57:41;;;;;;;6.88;0.90;;;;;;;5.51;76.80;99213.66;5060529;28;20055;-69
2022/12/31 04:00:12;;;;;;;8.38;1.23;;;;;;;5.50;76.98;99194.69;5062122;28;20495;-70
2022/12/31 04:02:40;;;;;;;3.75;0.98;;;;;;;5.51;77.14;99190.34;5061484;28;20063;-70
2022/12/31 04:05:07;;;;;;;7.57;1.08;;;;;;;5.49;76.95;99192.97;5063418;28;20056;-69
2022/12/31 04:07:36;;;;;;;4.43;0.50;;;;;;;5.51;76.89;99183.41;5055167;28;20644;-69
2022/12/31 04:10:03;;;;;;;9.65;0.85;;;;;;;5.51;77.00;99170.47;5059384;28;20045;-70
2022/12/31 04:12:30;;;;;;;5.15;0.57;;;;;;;5.51;77.12;99175.66;5055771;28;20041;-70
2022/12/31 04:14:58;;;;;;;5.40;0.60;;;;;;;5.48;77.06;99175.72;5059998;28;20146;-69
2022/12/31 04:17:25;;;;;;;7.78;1.00;;;;;;;5.52;77.27;99174.78;5066767;28;20062;-69
2022/12/31 04:19:52;;;;;;;3.92;0.85;;;;;;;5.53;77.55;99167.88;5063518;28;20120;-69
2022/12/31 04:22:19;;;;;;;3.50;0.60;;;;;;;5.53;77.41;99167.88;5057776;28;20059;-69
2022/12/31 04:24:47;;;;;;;4.28;0.60;;;;;;;5.53;77.50;99136.78;5063458;28;20057;-69
2022/12/31 04:27:15;;;;;;;5.00;0.60;;;;;;;5.55;77.56;99146.22;5063422;28;20045;-69
2022/12/31 04:29:42;;;;;;;2.50;0.50;;;;;;;5.55;77.62;99151.41;5067342;28;20044;-70
2022/12/31 04:32:09;;;;;;;2.22;0.60;;;;;;;5.56;77.58;99160.84;5062715;28;20049;-70
2022/12/31 04:34:36;;;;;;;6.95;0.60;;;;;;;5.58;77.82;99153.91;5064306;28;20560;-70
2022/12/31 04:37:03;;;;;;;5.05;0.52;;;;;;;5.59;77.73;99163.38;5062749;28;20499;-70
2022/12/31 04:39:30;;;;;;;6.50;0.65;;;;;;;5.60;77.59;99154.69;5062632;28;20051;-69
2022/12/31 04:41:58;;;;;;;2.20;0.65;;;;;;;5.61;77.61;99155.59;5056091;28;20057;-69
2022/12/31 04:44:25;;;;;;;6.78;0.85;;;;;;;5.63;77.90;99139.13;5063989;28;20444;-70
2022/12/31 04:46:52;;;;;;;6.70;1.00;;;;;;;5.63;77.77;99133.06;5060588;28;20051;-70
2022/12/31 04:49:19;;;;;;;6.53;1.23;;;;;;;5.65;77.75;99126.13;5064607;28;20056;-70
2022/12/31 04:51:46;;;;;;;3.40;0.82;;;;;;;5.64;77.83;99119.25;5062977;28;20048;-69
2022/12/31 04:54:13;;;;;;;6.72;0.82;;;;;;;5.66;77.86;99108.81;5065515;28;20036;-70
2022/12/31 04:56:40;;;;;;;3.38;0.70;;;;;;;5.66;77.88;99107.06;5060408;28;20131;-69
2022/12/31 04:59:09;;;;;;;10.85;1.55;;;;;;;5.69;78.22;99121.69;5061310;28;20123;-69
2022/12/31 05:01:37;;;;;;;7.70;0.73;;;;;;;5.65;78.12;99102.78;5066715;28;20061;-70
2022/12/31 05:04:04;;;;;;;5.60;0.75;;;;;;;5.70;77.98;99105.28;5063468;28;20056;-70
2022/12/31 05:06:31;;;;;;;5.32;0.85;;;;;;;5.71;78.07;99104.38;5061834;28;20418;-70
2022/12/31 05:08:58;;;;;;;5.22;0.80;;;;;;;5.71;78.03;99100.03;5063760;28;20499;-69
2022/12/31 05:11:24;;;;;;;6.82;1.30;;;;;;;5.71;77.94;99105.22;5063095;28;20079;-70
2022/12/31 05:13:51;;;;;;;5.03;0.70;;;;;;;5.72;78.01;99083.63;5064542;28;20101;-69
2022/12/31 05:16:20;;;;;;;4.40;0.70;;;;;;;5.73;78.05;99097.44;5061085;28;20106;-69
2022/12/31 05:18:46;;;;;;;1.27;0.40;;;;;;;5.74;78.10;99104.31;5062932;28;20045;-69
2022/12/31 05:21:20;;;;;;;5.00;0.70;;;;;;;5.76;78.25;99102.53;5063192;28;20063;-72
2022/12/31 05:23:47;;;;;;;9.18;0.90;;;;;;;5.74;78.04;99104.31;5064258;28;20056;-70
2022/12/31 05:26:14;;;;;;;6.03;0.70;;;;;;;5.73;78.03;99102.63;5058786;28;20045;-70
2022/12/31 05:28:41;;;;;;;6.57;0.70;;;;;;;5.76;78.08;99102.53;5065190;28;20101;-70
2022/12/31 05:31:08;;;;;;;3.60;0.68;;;;;;;5.78;78.11;99111.13;5062570;28;20075;-70
2022/12/31 05:33:36;;;;;;;7.25;0.57;;;;;;;5.80;77.78;99117.09;5062642;28;20041;-69
2022/12/31 05:36:03;;;;;;;5.30;0.40;;;;;;;5.80;77.80;99114.50;5064411;28;20055;-70
2022/12/31 05:38:30;;;;;;;4.72;0.73;;;;;;;5.79;77.79;99110.22;5058347;28;20049;-70
2022/12/31 05:41:02;;;;;;;5.68;1.77;;;;;;;5.77;77.58;99105.06;5062554;28;20062;-69
2022/12/31 05:43:29;;;;;;;5.13;0.70;;;;;;;5.77;77.83;99114.59;5062677;28;20421;-69
2022/12/31 05:45:56;;;;;;;2.58;0.55;;;;;;;5.78;77.75;99113.72;5066981;28;20137;-70
2022/12/31 05:48:23;;;;;;;3.38;0.60;;;;;;;5.76;77.91;99103.38;5062371;28;20430;-69
2022/12/31 05:50:51;;;;;;;5.35;0.50;;;;;;;5.79;77.81;99108.47;5063127;28;20043;-70
2022/12/31 05:53:18;;;;;;;7.38;0.80;;;;;;;5.78;77.52;99108.53;5064596;28;20056;-70
2022/12/31 05:55:47;;;;;;;1.90;0.50;;;;;;;5.78;77.73;99121.50;5064616;28;20062;-69
2022/12/31 05:58:14;;;;;;;3.13;0.60;;;;;;;5.77;77.36;99120.59;5066807;28;20503;-70
2022/12/31 06:00:42;;;;;;;3.13;0.57;;;;;;;5.77;77.43;99130.13;5060701;28;20049;-69
2022/12/31 06:03:09;;;;;;;3.13;0.70;;;;;;;5.78;77.55;99147.41;5058937;28;20509;-70
2022/12/31 06:05:39;;;;;;;3.70;0.60;;;;;;;5.77;77.64;99141.34;5061325;28;20045;-70
2022/12/31 06:08:08;;;;;;;2.13;0.40;;;;;;;5.77;77.43;99135.31;5058170;28;20465;-69
2022/12/31 06:10:35;;;;;;;4.80;0.60;;;;;;;5.77;77.63;99143.09;5061508;28;20039;-69
2022/12/31 06:13:01;;;;;;;4.25;0.80;;;;;;;5.77;77.51;99137.91;5059760;28;20131;-70
2022/12/31 06:15:28;;;;;;;6.07;0.50;;;;;;;5.76;77.42;99136.22;5062795;28;20053;-70
2022/12/31 06:17:55;;;;;;;3.65;0.45;;;;;;;5.76;77.67;99144.84;5062496;28;20510;-70
2022/12/31 06:20:22;;;;;;;7.28;0.50;;;;;;;5.74;77.67;99146.59;5059826;28;20045;-69
2022/12/31 06:22:49;;;;;;;4.75;0.95;;;;;;;5.76;77.40;99144.84;5061557;28;20051;-70
2022/12/31 06:25:17;;;;;;;3.20;0.47;;;;;;;5.74;77.15;99156.13;5061614;28;20045;-70
2022/12/31 06:27:44;;;;;;;4.68;0.50;;;;;;;5.75;77.41;99158.69;5060613;28;20051;-69
2022/12/31 06:30:12;;;;;;;4.78;0.40;;;;;;;5.75;77.54;99156.09;5061111;28;20483;-69
2022/12/31 06:32:39;;;;;;;4.28;2.13;;;;;;;5.74;77.45;99148.34;5059480;28;20037;-69
2022/12/31 06:35:07;;;;;;;4.82;0.35;;;;;;;5.75;77.47;99152.63;5059393;28;20618;-70
2022/12/31 06:37:34;;;;;;;1.90;0.40;;;;;;;5.76;77.12;99149.16;5064480;28;20049;-69
2022/12/31 06:40:01;;;;;;;4.38;0.45;;;;;;;5.74;77.29;99158.72;5061017;28;20055;-69
2022/12/31 06:42:30;;;;;;;2.83;0.40;;;;;;;5.73;77.24;99152.69;5062819;28;20079;-69
2022/12/31 06:44:57;;;;;;;3.28;0.30;;;;;;;5.73;77.39;99150.09;5062223;28;20483;-69
2022/12/31 06:47:25;;;;;;;6.70;0.70;;;;;;;5.72;77.49;99148.41;5064635;28;20498;-70
2022/12/31 06:49:52;;;;;;;3.33;0.30;;;;;;;5.72;77.67;99173.44;5062148;28;20048;-70
2022/12/31 06:52:18;;;;;;;3.35;0.40;;;;;;;5.70;77.34;99165.72;5059748;28;20422;-69
2022/12/31 06:54:46;;;;;;;3.35;0.28;;;;;;;5.70;77.16;99170.06;5058027;28;20053;-70
2022/12/31 06:57:14;;;;;;;5.43;0.30;;;;;;;5.70;77.14;99175.22;5064582;28;20047;-69
2022/12/31 06:59:43;;;;;;;4.00;0.65;;;;;;;5.70;77.46;99176.06;5060676;28;20124;-69
2022/12/31 07:02:39;;;;;;;2.72;0.50;;;;;;;5.69;77.15;99178.69;5060127;28;20057;-69
2022/12/31 07:05:21;;;;;;;3.88;0.30;;;;;;;5.68;77.09;99189.94;5062366;28;20050;-70
2022/12/31 07:07:59;;;;;;;3.60;0.45;;;;;;;5.66;77.28;99183.94;5058727;28;20053;-69
2022/12/31 07:10:36;;;;;;;2.88;0.30;;;;;;;5.66;77.24;99192.56;5059993;28;20040;-70
2022/12/31 07:13:18;;;;;;;5.00;0.20;;;;;;;5.54;77.28;99179.91;5060613;28;20440;-69
2022/12/31 07:16:02;;;;;;;5.47;0.30;;;;;;;5.63;77.34;99190.06;5061529;28;20135;-70
2022/12/31 07:18:39;;;;;;;2.53;0.40;;;;;;;5.62;77.22;99196.97;5060644;28;20051;-70
2022/12/31 07:21:12;;;;;;;2.72;0.40;;;;;;;5.61;77.18;99207.38;5062278;28;20139;-69
2022/12/31 07:23:39;;;;;;;1.67;0.70;;;;;;;5.61;77.51;99207.38;5058612;28;20044;-70
2022/12/31 07:26:12;;;;;;;3.22;0.35;;;;;;;5.60;77.42;99201.34;5060552;28;20058;-70
2022/12/31 07:28:50;;;;;;;2.10;0.30;;;;;;;5.59;77.27;99198.78;5062593;28;20506;-69
2022/12/31 07:31:29;;;;;;;5.13;0.43;;;;;;;5.60;77.47;99205.66;5059537;28;20057;-69
2022/12/31 07:33:59;;;;;;;3.30;0.20;;;;;;;5.60;77.38;99221.22;5059993;28;20059;-70
2022/12/31 07:36:49;;;;;;;4.20;0.30;;;;;;;5.58;77.39;99220.41;5059175;28;20055;-69
2022/12/31 07:39:23;;;;;;;1.83;0.20;;;;;;;5.58;77.61;99231.63;5061113;28;20156;-69
2022/12/31 07:41:58;;;;;;;5.38;0.30;;;;;;;5.59;77.33;99224.69;5062037;28;20442;-70
2022/12/31 07:44:38;;;;;;;1.60;0.20;;;;;;;5.58;77.28;99210.06;5059407;28;20485;-70
2022/12/31 07:47:19;;;;;;;5.00;0.30;;;;;;;5.58;77.41;99217.81;5061419;28;20045;-69
2022/12/31 07:49:47;;;;;;;2.33;0.30;;;;;;;5.55;77.16;99218.75;5062285;28;20139;-70
2022/12/31 07:52:15;;;;;;;3.13;0.68;;;;;;;5.54;77.32;99232.56;5064547;28;20129;-69
2022/12/31 07:54:42;;;;;;;4.28;0.70;;;;;;;5.54;77.48;99231.72;5066151;28;20048;-70
2022/12/31 07:57:11;;;;;;;1.10;0.30;;;;;;;5.50;77.35;99223.16;5064888;28;20071;-69
2022/12/31 07:59:52;;;;;;;3.60;0.30;;;;;;;5.51;77.42;99240.41;5064546;28;20070;-69
2022/12/31 08:02:36;;;;;;;5.35;0.30;;;;;;;5.53;77.29;99230.03;5062453;28;20048;-70
2022/12/31 08:05:12;;;;;;;3.75;0.20;;;;;;;5.50;77.28;99238.72;5064964;28;20380;-69
2022/12/31 08:07:48;;;;;;;1.58;0.20;;;;;;;5.50;77.48;99236.13;5063879;28;20044;-69
2022/12/31 08:10:26;;;;;;;1.42;0.15;;;;;;;5.50;77.43;99237.88;5064040;28;20046;-70
2022/12/31 08:13:00;;;;;;;0.75;0.20;;;;;;;5.49;77.26;99224.03;5063546;28;20106;-70
2022/12/31 08:15:28;;;;;;;1.52;0.20;;;;;;;5.49;77.47;99220.59;5061382;28;20400;-70
2022/12/31 08:17:57;;;;;;;4.80;0.30;;;;;;;5.48;77.63;99211.97;5061471;28;20422;-70
2022/12/31 08:20:26;;;;;;;2.13;0.30;;;;;;;5.48;77.60;99217.16;5065405;28;20051;-69
2022/12/31 08:23:19;;;;;;;3.45;0.30;;;;;;;5.48;77.39;99218.91;5065078;28;20114;-70
2022/12/31 08:26:03;;;;;;;1.23;0.20;;;;;;;5.47;77.62;99224.97;5063268;28;20048;-69
2022/12/31 08:28:46;;;;;;;2.97;0.38;;;;;;;5.46;77.44;99218.94;5064324;28;20461;-69
2022/12/31 08:31:18;;;;;;;6.30;1.08;;;;;;;5.46;77.81;99218.09;5064470;28;20062;-69
2022/12/31 08:33:57;;;;;;;2.15;0.30;;;;;;;5.45;77.77;99206.88;5063264;28;20045;-69
2022/12/31 08:36:32;;;;;;;5.25;0.65;;;;;;;5.45;77.68;99225.00;5065635;28;20135;-69
2022/12/31 08:39:07;;;;;;;3.22;0.40;;;;;;;5.36;77.72;99227.81;5064135;28;20051;-70
2022/12/31 08:41:41;;;;;;;3.10;0.20;;;;;;;5.45;77.81;99239.69;5063514;28;20053;-70
2022/12/31 08:44:17;;;;;;;3.60;0.20;;;;;;;5.45;77.74;99248.31;5064709;28;20430;-69
2022/12/31 08:46:50;;;;;;;6.50;0.30;;;;;;;5.44;77.84;99238.84;5066292;28;20411;-70
2022/12/31 08:49:19;;;;;;;3.53;0.35;;;;;;;5.45;77.76;99227.59;5065181;28;20451;-70
2022/12/31 08:51:47;;;;;;;5.75;0.30;;;;;;;5.46;78.04;99239.66;5065915;28;20132;-69
2022/12/31 08:54:14;;;;;;;8.07;0.40;;;;;;;5.47;77.92;99245.69;5063088;28;20040;-69
2022/12/31 08:56:49;;;;;;;5.43;0.57;;;;;;;5.47;77.98;99266.41;5061190;28;20048;-69
2022/12/31 08:59:35;;;;;;;3.40;0.30;;;;;;;5.47;77.86;99277.63;5065266;28;20128;-70
2022/12/31 09:02:26;;;;;;;1.92;0.30;;;;;;;5.49;77.66;99275.00;5062312;28;20599;-70
2022/12/31 09:05:04;;;;;;;5.72;0.30;;;;;;;5.49;77.68;99287.94;5064151;28;20110;-69
2022/12/31 09:07:36;;;;;;;4.18;0.30;;;;;;;5.49;77.82;99293.97;5063019;28;20061;-70
2022/12/31 09:10:15;;;;;;;4.93;0.25;;;;;;;5.50;77.60;99303.47;5059714;28;20052;-69
2022/12/31 09:12:52;;;;;;;4.53;0.30;;;;;;;5.51;77.63;99304.31;5061415;28;20044;-70
2022/12/31 09:15:26;;;;;;;5.22;0.50;;;;;;;5.52;77.53;99312.06;5065800;28;20047;-69
2022/12/31 09:17:53;;;;;;;5.43;0.68;;;;;;;5.50;77.64;99323.31;5062108;28;20048;-69
2022/12/31 09:20:27;;;;;;;2.38;0.30;;;;;;;5.52;77.66;99322.41;5063773;28;20040;-69
2022/12/31 09:22:55;;;;;;;4.53;0.17;;;;;;;5.40;77.61;99299.34;5064845;28;20048;-70
2022/12/31 09:25:24;;;;;;;4.35;0.30;;;;;;;5.52;77.25;99322.41;5061968;28;20131;-69
2022/12/31 09:28:05;;;;;;;2.38;0.20;;;;;;;5.51;77.34;99328.47;5060095;28;20041;-70
2022/12/31 09:30:39;;;;;;;4.38;0.30;;;;;;;5.52;77.55;99312.06;5062574;28;20144;-69
2022/12/31 09:33:12;;;;;;;11.73;0.57;;;;;;;5.51;77.52;99314.66;5062246;28;20055;-70
2022/12/31 09:35:46;;;;;;;4.68;0.38;;;;;;;5.51;77.29;99331.06;5062669;28;20067;-70
2022/12/31 09:38:20;;;;;;;4.93;0.30;;;;;;;5.52;77.44;99324.13;5063114;28;20499;-69
2022/12/31 09:40:55;;;;;;;7.40;0.30;;;;;;;5.52;77.22;99332.78;5062905;28;20127;-70
2022/12/31 09:43:55;;;;;;;3.85;0.60;;;;;;;5.51;77.15;99335.38;5062657;28;20552;-70
2022/12/31 09:46:57;;;;;;;3.08;0.40;;;;;;;5.50;77.24;99334.53;5012537;28;20047;-69
2022/12/31 09:49:56;;;;;;;5.00;0.85;;;;;;;5.54;77.41;99341.34;5062823;28;20049;-70
2022/12/31 09:52:36;;;;;;;10.70;1.25;;;;;;;5.54;77.21;99350.84;5061134;28;20049;-70
2022/12/31 09:55:23;;;;;;;9.00;1.15;;;;;;;5.55;77.46;99349.97;5060983;28;20132;-69
2022/12/31 09:58:02;;;;;;;3.95;0.40;;;;;;;5.55;77.37;99357.72;5064794;28;20058;-69
2022/12/31 10:00:37;;;;;;;8.68;0.60;;;;;;;5.56;77.27;99352.53;5064071;28;20052;-70
2022/12/31 10:03:36;;;;;;;7.87;0.60;;;;;;;5.56;77.34;99365.47;5065607;28;20060;-70
2022/12/31 10:06:18;;;;;;;6.93;0.30;;;;;;;5.57;77.35;99356.81;5064158;28;20364;-70
2022/12/31 10:09:13;;;;;;;6.25;0.40;;;;;;;5.57;77.34;99343.03;5065342;28;20135;-70
2022/12/31 10:11:57;;;;;;;9.30;1.02;;;;;;;5.58;77.33;99348.19;5062331;28;20044;-69
2022/12/31 10:14:38;;;;;;;6.78;0.47;;;;;;;5.58;77.35;99336.97;5062445;28;20053;-69
2022/12/31 10:17:18;;;;;;;9.68;0.60;;;;;;;5.59;77.20;99341.25;5061229;28;20041;-69
2022/12/31 10:20:08;;;;;;;5.50;0.63;;;;;;;5.62;77.31;99331.69;5058377;28;20045;-69
2022/12/31 10:22:49;;;;;;;7.70;0.35;;;;;;;5.61;77.49;99329.97;5063458;28;20044;-70
2022/12/31 10:25:33;;;;;;;7.57;0.50;;;;;;;5.64;77.31;99342.88;5060952;28;20041;-70
2022/12/31 10:28:06;;;;;;;6.45;0.73;;;;;;;5.64;77.44;99340.28;5059571;28;20055;-70
2022/12/31 10:30:35;;;;;;;4.45;0.47;;;;;;;5.64;77.36;99327.31;5063002;28;20052;-70
2022/12/31 10:33:08;;;;;;;5.88;1.05;;;;;;;5.67;77.53;99336.78;5059870;28;20037;-69
2022/12/31 10:35:42;;;;;;;5.47;2.00;;;;;;;5.68;77.71;99340.22;5060239;28;20055;-70
2022/12/31 10:38:22;;;;;;;7.25;0.75;;;;;;;5.70;77.46;99339.28;5066576;28;20048;-69
2022/12/31 10:41:39;;;;;;;5.60;0.40;;;;;;;5.72;77.27;99339.25;5060061;28;20045;-69
2022/12/31 10:44:43;;;;;;;10.50;1.60;;;;;;;5.72;77.25;99334.06;4998735;28;20584;-69
2022/12/31 10:47:58;;;;;;;12.07;0.50;;;;;;;5.74;77.07;99317.59;5064150;28;20876;-69
2022/12/31 10:50:46;;;;;;;7.32;0.52;;;;;;;5.75;76.99;99334.00;5056597;28;20135;-70
2022/12/31 10:53:53;;;;;;;7.10;0.40;;;;;;;5.78;76.90;99336.53;5059248;28;20051;-70
2022/12/31 10:56:51;;;;;;;5.85;0.50;;;;;;;5.80;76.93;99337.34;5019929;28;20049;-69
2022/12/31 11:00:09;;;;;;;11.30;0.57;;;;;;;5.79;76.96;99333.91;5056908;28;20124;-70
2022/12/31 11:03:11;;;;;;;14.52;0.50;;;;;;;5.83;76.71;99343.34;5042957;28;20043;-70
2022/12/31 11:06:26;;;;;;;10.43;0.68;;;;;;;5.84;76.84;99334.66;5059530;28;20410;-70
2022/12/31 11:09:23;;;;;;;8.55;0.40;;;;;;;5.85;76.94;99327.72;5063322;28;20053;-69
2022/12/31 11:11:58;;;;;;;12.63;1.52;;;;;;;5.87;76.78;99328.56;5060041;28;20195;-69
2022/12/31 11:14:52;;;;;;;12.45;1.15;;;;;;;5.90;76.65;99327.63;5060954;28;20041;-70
2022/12/31 11:17:34;;;;;;;12.25;1.13;;;;;;;5.91;76.95;99321.56;5061513;28;20040;-69
2022/12/31 11:20:17;;;;;;;9.73;1.65;;;;;;;5.92;76.75;99320.66;5062392;28;20048;-70
2022/12/31 11:23:01;;;;;;;7.45;0.30;;;;;;;5.95;76.99;99315.44;5061159;28;20049;-69
2022/12/31 11:25:34;;;;;;;12.98;0.90;;;;;;;5.96;76.68;99309.38;5061295;28;20132;-69
2022/12/31 11:28:22;;;;;;;6.45;0.40;;;;;;;5.97;76.77;99311.94;5058025;28;20054;-69
2022/12/31 11:31:05;;;;;;;10.30;0.55;;;;;;;5.98;76.83;99299.84;5059669;28;20053;-70
2022/12/31 11:33:49;;;;;;;14.45;0.93;;;;;;;6.02;76.58;99311.84;5061904;28;20474;-70
2022/12/31 11:36:22;;;;;;;9.13;0.80;;;;;;;6.03;76.56;99310.94;5060515;28;20053;-70
2022/12/31 11:38:53;;;;;;;12.05;1.77;;;;;;;6.00;76.72;99308.41;5058455;28;20052;-70
2022/12/31 11:41:32;;;;;;;12.25;1.00;;;;;;;6.07;76.77;99310.00;5060686;28;20036;-70
2022/12/31 11:44:13;;;;;;;7.72;1.23;;;;;;;6.04;76.41;99300.53;5061764;28;20056;-69
2022/12/31 11:47:08;;;;;;;11.02;0.70;;;;;;;6.10;76.39;99309.91;5059998;28;20048;-70
2022/12/31 11:50:03;;;;;;;9.38;0.82;;;;;;;6.12;76.76;99309.84;5057524;28;20044;-70
2022/12/31 11:52:51;;;;;;;7.05;0.93;;;;;;;6.12;76.49;99321.09;5063762;28;20045;-69
2022/12/31 11:55:43;;;;;;;5.00;0.50;;;;;;;6.15;76.55;99322.75;5052405;28;20055;-70
2022/12/31 11:58:14;;;;;;;16.95;1.50;;;;;;;6.15;76.28;99312.38;5063066;28;20422;-69
2022/12/31 12:00:49;;;;;;;13.40;1.20;;;;;;;6.16;76.65;99303.72;5061856;28;20045;-70
2022/12/31 12:03:16;;;;;;;9.45;1.15;;;;;;;6.17;76.39;99301.09;5058043;28;20052;-70
2022/12/31 12:05:43;;;;;;;8.63;0.65;;;;;;;6.11;76.08;99287.44;5058983;28;20120;-70
2022/12/31 12:08:11;;;;;;;15.85;0.70;;;;;;;6.20;76.34;99300.16;5059307;28;20044;-70
2022/12/31 12:10:44;;;;;;;13.15;0.80;;;;;;;6.20;76.16;99294.97;5059824;28;20091;-70
2022/12/31 12:13:14;;;;;;;8.20;0.88;;;;;;;6.21;76.15;99289.78;5061008;28;20051;-69
2022/12/31 12:15:45;;;;;;;13.50;1.83;;;;;;;6.23;76.10;99284.53;5062790;28;20048;-69
2022/12/31 12:18:34;;;;;;;18.17;1.45;;;;;;;6.24;76.06;99288.84;5060019;28;20059;-70